sensor_id;sensor_type;location;lat;lon;timestamp;P1;durP1;ratioP1;P2;durP2;ratioP2
5995;SDS011;3026;53.612;7.278;2023-05-02T00:00:18;12.97;;;3.10;;
5995;SDS011;3026;53.612;7.278;2023-05-02T00:02:45;8.43;;;2.73;;
5995;SDS011;3026;53.612;7.278;2023-05-02T00:05:12;10.37;;;2.80;;
5995;SDS011;3026;53.612;7.278;2023-05-02T00:07:38;11.63;;;3.17;;
5995;SDS011;3026;53.612;7.278;2023-05-02T00:10:05;13.60;;;4.17;;
5995;SDS011;3026;53.612;7.278;2023-05-02T00:12:33;7.73;;;3.10;;
5995;SDS011;3026;53.612;7.278;2023-05-02T00:15:00;8.83;;;3.43;;
5995;SDS011;3026;53.612;7.278;2023-05-02T00:17:28;11.57;;;3.30;;
5995;SDS011;3026;53.612;7.278;2023-05-02T00:19:55;10.30;;;3.37;;
5995;SDS011;3026;53.612;7.278;2023-05-02T00:22:22;8.77;;;3.13;;
5995;SDS011;3026;53.612;7.278;2023-05-02T00:24:48;12.03;;;3.03;;
5995;SDS011;3026;53.612;7.278;2023-05-02T00:27:15;10.67;;;3.07;;
5995;SDS011;3026;53.612;7.278;2023-05-02T00:29:43;13.60;;;2.90;;
5995;SDS011;3026;53.612;7.278;2023-05-02T00:32:11;12.17;;;3.10;;
5995;SDS011;3026;53.612;7.278;2023-05-02T00:34:40;10.10;;;3.07;;
5995;SDS011;3026;53.612;7.278;2023-05-02T00:37:07;7.97;;;2.87;;
5995;SDS011;3026;53.612;7.278;2023-05-02T00:39:34;12.17;;;4.00;;
5995;SDS011;3026;53.612;7.278;2023-05-02T00:42:01;7.43;;;2.67;;
5995;SDS011;3026;53.612;7.278;2023-05-02T00:44:27;14.83;;;3.97;;
5995;SDS011;3026;53.612;7.278;2023-05-02T00:46:54;12.37;;;2.70;;
5995;SDS011;3026;53.612;7.278;2023-05-02T00:49:21;10.43;;;3.20;;
5995;SDS011;3026;53.612;7.278;2023-05-02T00:51:50;12.10;;;3.10;;
5995;SDS011;3026;53.612;7.278;2023-05-02T00:54:17;9.43;;;2.30;;
5995;SDS011;3026;53.612;7.278;2023-05-02T00:56:43;9.40;;;2.80;;
5995;SDS011;3026;53.612;7.278;2023-05-02T00:59:10;12.13;;;3.23;;
5995;SDS011;3026;53.612;7.278;2023-05-02T01:01:44;8.87;;;2.60;;
5995;SDS011;3026;53.612;7.278;2023-05-02T01:04:21;9.53;;;2.83;;
5995;SDS011;3026;53.612;7.278;2023-05-02T01:06:59;9.63;;;3.13;;
5995;SDS011;3026;53.612;7.278;2023-05-02T01:09:38;14.43;;;3.07;;
5995;SDS011;3026;53.612;7.278;2023-05-02T01:12:15;7.47;;;2.93;;
5995;SDS011;3026;53.612;7.278;2023-05-02T01:14:52;14.03;;;3.00;;
5995;SDS011;3026;53.612;7.278;2023-05-02T01:17:20;10.77;;;3.43;;
5995;SDS011;3026;53.612;7.278;2023-05-02T01:19:50;17.07;;;3.83;;
5995;SDS011;3026;53.612;7.278;2023-05-02T01:22:21;12.73;;;3.20;;
5995;SDS011;3026;53.612;7.278;2023-05-02T01:24:51;11.53;;;2.60;;
5995;SDS011;3026;53.612;7.278;2023-05-02T01:27:27;12.67;;;3.00;;
5995;SDS011;3026;53.612;7.278;2023-05-02T01:30:02;7.57;;;3.13;;
5995;SDS011;3026;53.612;7.278;2023-05-02T01:32:31;9.80;;;2.80;;
5995;SDS011;3026;53.612;7.278;2023-05-02T01:35:00;10.27;;;3.00;;
5995;SDS011;3026;53.612;7.278;2023-05-02T01:37:28;26.60;;;4.73;;
5995;SDS011;3026;53.612;7.278;2023-05-02T01:39:56;12.33;;;3.53;;
5995;SDS011;3026;53.612;7.278;2023-05-02T01:42:25;13.87;;;3.73;;
5995;SDS011;3026;53.612;7.278;2023-05-02T01:44:54;9.20;;;3.37;;
5995;SDS011;3026;53.612;7.278;2023-05-02T01:47:23;12.47;;;2.97;;
5995;SDS011;3026;53.612;7.278;2023-05-02T01:49:52;14.57;;;3.60;;
5995;SDS011;3026;53.612;7.278;2023-05-02T01:52:19;17.83;;;4.00;;
5995;SDS011;3026;53.612;7.278;2023-05-02T01:54:49;13.87;;;3.43;;
5995;SDS011;3026;53.612;7.278;2023-05-02T01:57:17;10.63;;;3.07;;
5995;SDS011;3026;53.612;7.278;2023-05-02T01:59:44;14.17;;;3.10;;
5995;SDS011;3026;53.612;7.278;2023-05-02T02:02:13;14.13;;;3.73;;
5995;SDS011;3026;53.612;7.278;2023-05-02T02:04:43;21.57;;;3.67;;
5995;SDS011;3026;53.612;7.278;2023-05-02T02:07:12;15.87;;;3.17;;
5995;SDS011;3026;53.612;7.278;2023-05-02T02:09:39;14.87;;;3.60;;
5995;SDS011;3026;53.612;7.278;2023-05-02T02:12:07;16.27;;;3.40;;
5995;SDS011;3026;53.612;7.278;2023-05-02T02:14:38;12.63;;;3.17;;
5995;SDS011;3026;53.612;7.278;2023-05-02T02:17:14;10.53;;;3.00;;
5995;SDS011;3026;53.612;7.278;2023-05-02T02:19:47;9.33;;;3.10;;
5995;SDS011;3026;53.612;7.278;2023-05-02T02:22:18;9.50;;;3.23;;
5995;SDS011;3026;53.612;7.278;2023-05-02T02:24:47;17.70;;;3.80;;
5995;SDS011;3026;53.612;7.278;2023-05-02T02:27:14;12.80;;;3.10;;
5995;SDS011;3026;53.612;7.278;2023-05-02T02:29:41;11.33;;;3.63;;
5995;SDS011;3026;53.612;7.278;2023-05-02T02:32:08;13.43;;;3.70;;
5995;SDS011;3026;53.612;7.278;2023-05-02T02:34:35;15.13;;;3.93;;
5995;SDS011;3026;53.612;7.278;2023-05-02T02:37:06;10.67;;;3.53;;
5995;SDS011;3026;53.612;7.278;2023-05-02T02:39:39;15.67;;;4.30;;
5995;SDS011;3026;53.612;7.278;2023-05-02T02:42:13;13.57;;;3.17;;
5995;SDS011;3026;53.612;7.278;2023-05-02T02:44:46;12.57;;;3.20;;
5995;SDS011;3026;53.612;7.278;2023-05-02T02:47:22;12.00;;;3.33;;
5995;SDS011;3026;53.612;7.278;2023-05-02T02:49:56;12.40;;;3.43;;
5995;SDS011;3026;53.612;7.278;2023-05-02T02:52:39;12.93;;;3.13;;
5995;SDS011;3026;53.612;7.278;2023-05-02T02:55:16;13.43;;;3.83;;
5995;SDS011;3026;53.612;7.278;2023-05-02T02:57:50;9.27;;;3.50;;
5995;SDS011;3026;53.612;7.278;2023-05-02T03:00:23;12.90;;;2.80;;
5995;SDS011;3026;53.612;7.278;2023-05-02T03:02:52;8.87;;;2.90;;
5995;SDS011;3026;53.612;7.278;2023-05-02T03:05:20;11.03;;;2.83;;
5995;SDS011;3026;53.612;7.278;2023-05-02T03:07:49;8.83;;;2.13;;
5995;SDS011;3026;53.612;7.278;2023-05-02T03:10:17;13.57;;;2.80;;
5995;SDS011;3026;53.612;7.278;2023-05-02T03:12:44;12.47;;;2.63;;
5995;SDS011;3026;53.612;7.278;2023-05-02T03:15:19;10.40;;;2.43;;
5995;SDS011;3026;53.612;7.278;2023-05-02T03:17:58;10.70;;;2.63;;
5995;SDS011;3026;53.612;7.278;2023-05-02T03:20:24;13.17;;;3.57;;
5995;SDS011;3026;53.612;7.278;2023-05-02T03:22:53;8.13;;;2.37;;
5995;SDS011;3026;53.612;7.278;2023-05-02T03:25:19;9.40;;;2.90;;
5995;SDS011;3026;53.612;7.278;2023-05-02T03:27:46;5.33;;;2.17;;
5995;SDS011;3026;53.612;7.278;2023-05-02T03:30:13;7.53;;;1.90;;
5995;SDS011;3026;53.612;7.278;2023-05-02T03:32:40;10.87;;;2.03;;
5995;SDS011;3026;53.612;7.278;2023-05-02T03:35:07;6.97;;;1.87;;
5995;SDS011;3026;53.612;7.278;2023-05-02T03:37:34;9.70;;;2.07;;
5995;SDS011;3026;53.612;7.278;2023-05-02T03:40:02;8.87;;;2.20;;
5995;SDS011;3026;53.612;7.278;2023-05-02T03:42:29;6.23;;;3.40;;
5995;SDS011;3026;53.612;7.278;2023-05-02T03:44:56;9.73;;;2.10;;
5995;SDS011;3026;53.612;7.278;2023-05-02T03:47:23;12.10;;;3.27;;
5995;SDS011;3026;53.612;7.278;2023-05-02T03:49:50;7.57;;;2.37;;
5995;SDS011;3026;53.612;7.278;2023-05-02T03:52:17;12.03;;;3.10;;
5995;SDS011;3026;53.612;7.278;2023-05-02T03:54:44;11.93;;;2.37;;
5995;SDS011;3026;53.612;7.278;2023-05-02T03:57:12;8.47;;;2.50;;
5995;SDS011;3026;53.612;7.278;2023-05-02T03:59:39;7.80;;;2.43;;
5995;SDS011;3026;53.612;7.278;2023-05-02T04:02:07;7.73;;;2.57;;
5995;SDS011;3026;53.612;7.278;2023-05-02T04:04:35;12.27;;;2.30;;
5995;SDS011;3026;53.612;7.278;2023-05-02T04:07:02;6.73;;;2.13;;
5995;SDS011;3026;53.612;7.278;2023-05-02T04:09:29;12.63;;;2.87;;
5995;SDS011;3026;53.612;7.278;2023-05-02T04:11:56;12.50;;;2.30;;
5995;SDS011;3026;53.612;7.278;2023-05-02T04:14:24;8.40;;;2.50;;
5995;SDS011;3026;53.612;7.278;2023-05-02T04:16:51;9.40;;;2.10;;
5995;SDS011;3026;53.612;7.278;2023-05-02T04:19:18;9.03;;;2.30;;
5995;SDS011;3026;53.612;7.278;2023-05-02T04:21:44;11.87;;;3.63;;
5995;SDS011;3026;53.612;7.278;2023-05-02T04:24:12;10.87;;;2.80;;
5995;SDS011;3026;53.612;7.278;2023-05-02T04:26:39;9.80;;;2.83;;
5995;SDS011;3026;53.612;7.278;2023-05-02T04:29:05;13.50;;;3.20;;
5995;SDS011;3026;53.612;7.278;2023-05-02T04:31:34;15.00;;;4.03;;
5995;SDS011;3026;53.612;7.278;2023-05-02T04:34:01;7.80;;;2.57;;
5995;SDS011;3026;53.612;7.278;2023-05-02T04:36:28;14.17;;;3.70;;
5995;SDS011;3026;53.612;7.278;2023-05-02T04:38:55;8.20;;;2.87;;
5995;SDS011;3026;53.612;7.278;2023-05-02T04:41:22;13.70;;;3.57;;
5995;SDS011;3026;53.612;7.278;2023-05-02T04:43:49;9.23;;;2.70;;
5995;SDS011;3026;53.612;7.278;2023-05-02T04:46:15;9.70;;;2.90;;
5995;SDS011;3026;53.612;7.278;2023-05-02T04:48:44;13.17;;;2.73;;
5995;SDS011;3026;53.612;7.278;2023-05-02T04:51:11;9.70;;;2.70;;
5995;SDS011;3026;53.612;7.278;2023-05-02T04:53:38;14.77;;;2.87;;
5995;SDS011;3026;53.612;7.278;2023-05-02T04:56:05;12.73;;;3.27;;
5995;SDS011;3026;53.612;7.278;2023-05-02T04:58:32;11.00;;;3.00;;
5995;SDS011;3026;53.612;7.278;2023-05-02T05:01:00;13.47;;;3.33;;
5995;SDS011;3026;53.612;7.278;2023-05-02T05:03:27;9.30;;;2.53;;
5995;SDS011;3026;53.612;7.278;2023-05-02T05:05:56;6.70;;;2.53;;
5995;SDS011;3026;53.612;7.278;2023-05-02T05:08:23;8.30;;;2.27;;
5995;SDS011;3026;53.612;7.278;2023-05-02T05:10:49;7.60;;;3.80;;
5995;SDS011;3026;53.612;7.278;2023-05-02T05:13:16;6.67;;;2.60;;
5995;SDS011;3026;53.612;7.278;2023-05-02T05:15:43;5.93;;;2.27;;
5995;SDS011;3026;53.612;7.278;2023-05-02T05:18:10;7.00;;;2.67;;
5995;SDS011;3026;53.612;7.278;2023-05-02T05:20:37;13.37;;;3.33;;
5995;SDS011;3026;53.612;7.278;2023-05-02T05:23:05;7.97;;;3.20;;
5995;SDS011;3026;53.612;7.278;2023-05-02T05:25:32;7.27;;;2.67;;
5995;SDS011;3026;53.612;7.278;2023-05-02T05:27:59;9.03;;;2.33;;
5995;SDS011;3026;53.612;7.278;2023-05-02T05:30:27;9.53;;;3.57;;
5995;SDS011;3026;53.612;7.278;2023-05-02T05:32:55;9.33;;;3.27;;
5995;SDS011;3026;53.612;7.278;2023-05-02T05:35:22;7.97;;;2.33;;
5995;SDS011;3026;53.612;7.278;2023-05-02T05:37:49;6.07;;;2.30;;
5995;SDS011;3026;53.612;7.278;2023-05-02T05:40:18;8.70;;;2.57;;
5995;SDS011;3026;53.612;7.278;2023-05-02T05:42:45;8.90;;;2.40;;
5995;SDS011;3026;53.612;7.278;2023-05-02T05:45:12;9.93;;;2.47;;
5995;SDS011;3026;53.612;7.278;2023-05-02T05:47:40;5.57;;;2.40;;
5995;SDS011;3026;53.612;7.278;2023-05-02T05:50:07;5.43;;;2.43;;
5995;SDS011;3026;53.612;7.278;2023-05-02T05:52:35;7.10;;;2.67;;
5995;SDS011;3026;53.612;7.278;2023-05-02T05:55:02;8.50;;;2.37;;
5995;SDS011;3026;53.612;7.278;2023-05-02T05:57:31;8.43;;;2.43;;
5995;SDS011;3026;53.612;7.278;2023-05-02T05:59:57;5.63;;;2.27;;
5995;SDS011;3026;53.612;7.278;2023-05-02T06:02:24;5.73;;;2.23;;
5995;SDS011;3026;53.612;7.278;2023-05-02T06:04:51;7.77;;;2.60;;
5995;SDS011;3026;53.612;7.278;2023-05-02T06:07:18;10.13;;;2.00;;
5995;SDS011;3026;53.612;7.278;2023-05-02T06:09:44;10.43;;;2.40;;
5995;SDS011;3026;53.612;7.278;2023-05-02T06:12:11;6.90;;;2.27;;
5995;SDS011;3026;53.612;7.278;2023-05-02T06:14:41;7.40;;;2.47;;
5995;SDS011;3026;53.612;7.278;2023-05-02T06:17:08;6.43;;;2.20;;
5995;SDS011;3026;53.612;7.278;2023-05-02T06:19:35;12.17;;;2.27;;
5995;SDS011;3026;53.612;7.278;2023-05-02T06:22:02;7.90;;;2.40;;
5995;SDS011;3026;53.612;7.278;2023-05-02T06:24:29;4.87;;;1.93;;
5995;SDS011;3026;53.612;7.278;2023-05-02T06:26:55;6.57;;;2.10;;
5995;SDS011;3026;53.612;7.278;2023-05-02T06:29:22;4.20;;;1.77;;
5995;SDS011;3026;53.612;7.278;2023-05-02T06:31:50;6.27;;;1.93;;
5995;SDS011;3026;53.612;7.278;2023-05-02T06:34:20;6.83;;;1.97;;
5995;SDS011;3026;53.612;7.278;2023-05-02T06:36:47;7.17;;;1.93;;
5995;SDS011;3026;53.612;7.278;2023-05-02T06:39:14;3.10;;;1.63;;
5995;SDS011;3026;53.612;7.278;2023-05-02T06:41:40;5.97;;;1.17;;
5995;SDS011;3026;53.612;7.278;2023-05-02T06:44:07;6.27;;;1.50;;
5995;SDS011;3026;53.612;7.278;2023-05-02T06:46:34;9.70;;;1.40;;
5995;SDS011;3026;53.612;7.278;2023-05-02T06:49:02;2.33;;;1.50;;
5995;SDS011;3026;53.612;7.278;2023-05-02T06:51:29;6.23;;;1.60;;
5995;SDS011;3026;53.612;7.278;2023-05-02T06:53:56;5.97;;;1.37;;
5995;SDS011;3026;53.612;7.278;2023-05-02T06:56:23;5.47;;;1.50;;
5995;SDS011;3026;53.612;7.278;2023-05-02T06:58:51;2.63;;;1.10;;
5995;SDS011;3026;53.612;7.278;2023-05-02T07:01:18;3.30;;;1.13;;
5995;SDS011;3026;53.612;7.278;2023-05-02T07:03:45;4.50;;;1.33;;
5995;SDS011;3026;53.612;7.278;2023-05-02T07:06:13;6.30;;;1.00;;
5995;SDS011;3026;53.612;7.278;2023-05-02T07:08:40;3.20;;;1.10;;
5995;SDS011;3026;53.612;7.278;2023-05-02T07:11:06;1.87;;;1.10;;
5995;SDS011;3026;53.612;7.278;2023-05-02T07:13:33;4.10;;;1.10;;
5995;SDS011;3026;53.612;7.278;2023-05-02T07:16:00;3.93;;;1.00;;
5995;SDS011;3026;53.612;7.278;2023-05-02T07:18:27;3.63;;;1.53;;
5995;SDS011;3026;53.612;7.278;2023-05-02T07:20:53;3.17;;;1.10;;
5995;SDS011;3026;53.612;7.278;2023-05-02T07:23:22;4.00;;;1.20;;
5995;SDS011;3026;53.612;7.278;2023-05-02T07:25:49;2.20;;;1.30;;
5995;SDS011;3026;53.612;7.278;2023-05-02T07:28:16;3.70;;;1.23;;
5995;SDS011;3026;53.612;7.278;2023-05-02T07:30:43;2.57;;;0.97;;
5995;SDS011;3026;53.612;7.278;2023-05-02T07:33:10;3.13;;;1.20;;
5995;SDS011;3026;53.612;7.278;2023-05-02T07:35:36;5.90;;;1.23;;
5995;SDS011;3026;53.612;7.278;2023-05-02T07:38:03;2.80;;;2.10;;
5995;SDS011;3026;53.612;7.278;2023-05-02T07:40:31;5.03;;;1.20;;
5995;SDS011;3026;53.612;7.278;2023-05-02T07:42:59;6.67;;;2.13;;
5995;SDS011;3026;53.612;7.278;2023-05-02T07:45:27;4.57;;;2.53;;
5995;SDS011;3026;53.612;7.278;2023-05-02T07:47:53;4.80;;;1.30;;
5995;SDS011;3026;53.612;7.278;2023-05-02T07:50:20;6.73;;;1.53;;
5995;SDS011;3026;53.612;7.278;2023-05-02T07:52:49;4.87;;;1.27;;
5995;SDS011;3026;53.612;7.278;2023-05-02T07:55:16;1.60;;;1.27;;
5995;SDS011;3026;53.612;7.278;2023-05-02T07:57:44;5.57;;;1.57;;
5995;SDS011;3026;53.612;7.278;2023-05-02T08:00:11;3.43;;;1.40;;
5995;SDS011;3026;53.612;7.278;2023-05-02T08:02:39;3.63;;;1.20;;
5995;SDS011;3026;53.612;7.278;2023-05-02T08:05:06;2.57;;;1.03;;
5995;SDS011;3026;53.612;7.278;2023-05-02T08:07:33;2.87;;;1.20;;
5995;SDS011;3026;53.612;7.278;2023-05-02T08:10:00;4.37;;;1.60;;
5995;SDS011;3026;53.612;7.278;2023-05-02T08:12:27;4.93;;;1.20;;
5995;SDS011;3026;53.612;7.278;2023-05-02T08:14:55;3.63;;;1.50;;
5995;SDS011;3026;53.612;7.278;2023-05-02T08:17:22;2.67;;;1.20;;
5995;SDS011;3026;53.612;7.278;2023-05-02T08:19:49;5.53;;;1.67;;
5995;SDS011;3026;53.612;7.278;2023-05-02T08:22:16;5.63;;;2.03;;
5995;SDS011;3026;53.612;7.278;2023-05-02T08:24:42;10.07;;;1.60;;
5995;SDS011;3026;53.612;7.278;2023-05-02T08:27:09;5.23;;;1.60;;
5995;SDS011;3026;53.612;7.278;2023-05-02T08:29:36;2.90;;;1.40;;
5995;SDS011;3026;53.612;7.278;2023-05-02T08:32:04;5.97;;;2.17;;
5995;SDS011;3026;53.612;7.278;2023-05-02T08:34:31;4.80;;;1.50;;
5995;SDS011;3026;53.612;7.278;2023-05-02T08:36:58;2.17;;;1.40;;
5995;SDS011;3026;53.612;7.278;2023-05-02T08:39:25;5.00;;;1.43;;
5995;SDS011;3026;53.612;7.278;2023-05-02T08:41:52;4.90;;;1.60;;
5995;SDS011;3026;53.612;7.278;2023-05-02T08:44:18;5.00;;;1.63;;
5995;SDS011;3026;53.612;7.278;2023-05-02T08:46:46;4.47;;;1.50;;
5995;SDS011;3026;53.612;7.278;2023-05-02T08:49:17;10.63;;;1.50;;
5995;SDS011;3026;53.612;7.278;2023-05-02T08:51:46;3.93;;;1.63;;
5995;SDS011;3026;53.612;7.278;2023-05-02T08:54:16;2.50;;;0.93;;
5995;SDS011;3026;53.612;7.278;2023-05-02T08:56:44;7.13;;;1.40;;
5995;SDS011;3026;53.612;7.278;2023-05-02T08:59:11;4.67;;;1.43;;
5995;SDS011;3026;53.612;7.278;2023-05-02T09:01:38;4.00;;;1.10;;
5995;SDS011;3026;53.612;7.278;2023-05-02T09:04:09;3.30;;;1.20;;
5995;SDS011;3026;53.612;7.278;2023-05-02T09:06:38;3.93;;;1.03;;
5995;SDS011;3026;53.612;7.278;2023-05-02T09:09:05;5.63;;;1.20;;
5995;SDS011;3026;53.612;7.278;2023-05-02T09:11:32;1.80;;;1.17;;
5995;SDS011;3026;53.612;7.278;2023-05-02T09:13:59;2.57;;;1.10;;
5995;SDS011;3026;53.612;7.278;2023-05-02T09:16:28;6.73;;;1.60;;
5995;SDS011;3026;53.612;7.278;2023-05-02T09:18:55;4.80;;;1.13;;
5995;SDS011;3026;53.612;7.278;2023-05-02T09:21:23;4.60;;;1.07;;
5995;SDS011;3026;53.612;7.278;2023-05-02T09:23:53;4.23;;;1.07;;
5995;SDS011;3026;53.612;7.278;2023-05-02T09:26:21;2.23;;;0.93;;
5995;SDS011;3026;53.612;7.278;2023-05-02T09:28:51;3.00;;;0.90;;
5995;SDS011;3026;53.612;7.278;2023-05-02T09:31:19;3.23;;;1.37;;
5995;SDS011;3026;53.612;7.278;2023-05-02T09:33:47;4.43;;;1.40;;
5995;SDS011;3026;53.612;7.278;2023-05-02T09:36:15;3.30;;;1.30;;
5995;SDS011;3026;53.612;7.278;2023-05-02T09:38:43;5.87;;;1.30;;
5995;SDS011;3026;53.612;7.278;2023-05-02T09:41:12;5.87;;;1.10;;
5995;SDS011;3026;53.612;7.278;2023-05-02T09:43:39;5.10;;;1.20;;
5995;SDS011;3026;53.612;7.278;2023-05-02T09:46:07;2.93;;;1.40;;
5995;SDS011;3026;53.612;7.278;2023-05-02T09:48:50;4.83;;;1.20;;
5995;SDS011;3026;53.612;7.278;2023-05-02T09:51:18;3.07;;;1.20;;
5995;SDS011;3026;53.612;7.278;2023-05-02T09:53:45;5.03;;;1.07;;
5995;SDS011;3026;53.612;7.278;2023-05-02T09:56:14;1.83;;;0.80;;
5995;SDS011;3026;53.612;7.278;2023-05-02T09:58:41;4.13;;;1.17;;
5995;SDS011;3026;53.612;7.278;2023-05-02T10:01:12;3.03;;;1.10;;
5995;SDS011;3026;53.612;7.278;2023-05-02T10:03:40;8.57;;;1.13;;
5995;SDS011;3026;53.612;7.278;2023-05-02T10:06:07;5.63;;;1.00;;
5995;SDS011;3026;53.612;7.278;2023-05-02T10:08:35;1.80;;;0.77;;
5995;SDS011;3026;53.612;7.278;2023-05-02T10:11:02;2.17;;;1.10;;
5995;SDS011;3026;53.612;7.278;2023-05-02T10:13:33;2.30;;;0.80;;
5995;SDS011;3026;53.612;7.278;2023-05-02T10:16:03;4.83;;;1.23;;
5995;SDS011;3026;53.612;7.278;2023-05-02T10:18:32;6.60;;;1.27;;
5995;SDS011;3026;53.612;7.278;2023-05-02T10:21:19;3.57;;;1.20;;
5995;SDS011;3026;53.612;7.278;2023-05-02T10:23:51;5.73;;;1.10;;
5995;SDS011;3026;53.612;7.278;2023-05-02T10:26:18;1.53;;;1.00;;
5995;SDS011;3026;53.612;7.278;2023-05-02T10:28:48;4.17;;;0.90;;
5995;SDS011;3026;53.612;7.278;2023-05-02T10:31:16;4.53;;;1.00;;
5995;SDS011;3026;53.612;7.278;2023-05-02T10:33:44;3.57;;;1.23;;
5995;SDS011;3026;53.612;7.278;2023-05-02T10:36:16;2.20;;;1.00;;
5995;SDS011;3026;53.612;7.278;2023-05-02T10:38:46;3.27;;;1.00;;
5995;SDS011;3026;53.612;7.278;2023-05-02T10:41:15;2.40;;;1.00;;
5995;SDS011;3026;53.612;7.278;2023-05-02T10:43:45;3.90;;;1.10;;
5995;SDS011;3026;53.612;7.278;2023-05-02T10:46:29;0.90;;;0.70;;
5995;SDS011;3026;53.612;7.278;2023-05-02T10:49:01;1.63;;;0.63;;
5995;SDS011;3026;53.612;7.278;2023-05-02T10:51:30;5.07;;;0.83;;
5995;SDS011;3026;53.612;7.278;2023-05-02T10:57:00;6.10;;;1.10;;
5995;SDS011;3026;53.612;7.278;2023-05-02T10:59:28;2.73;;;1.20;;
5995;SDS011;3026;53.612;7.278;2023-05-02T11:01:57;2.37;;;0.70;;
5995;SDS011;3026;53.612;7.278;2023-05-02T11:04:25;3.03;;;1.10;;
5995;SDS011;3026;53.612;7.278;2023-05-02T11:07:16;3.00;;;0.80;;
5995;SDS011;3026;53.612;7.278;2023-05-02T11:09:43;2.43;;;1.00;;
5995;SDS011;3026;53.612;7.278;2023-05-02T11:12:10;3.60;;;1.07;;
5995;SDS011;3026;53.612;7.278;2023-05-02T11:14:43;3.17;;;1.20;;
5995;SDS011;3026;53.612;7.278;2023-05-02T11:17:14;3.37;;;1.10;;
5995;SDS011;3026;53.612;7.278;2023-05-02T11:22:45;4.17;;;1.37;;
5995;SDS011;3026;53.612;7.278;2023-05-02T11:27:54;3.97;;;1.00;;
5995;SDS011;3026;53.612;7.278;2023-05-02T11:30:35;3.00;;;0.83;;
5995;SDS011;3026;53.612;7.278;2023-05-02T11:33:12;3.57;;;1.20;;
5995;SDS011;3026;53.612;7.278;2023-05-02T11:35:44;3.43;;;1.30;;
5995;SDS011;3026;53.612;7.278;2023-05-02T11:38:13;2.63;;;0.80;;
5995;SDS011;3026;53.612;7.278;2023-05-02T11:40:51;3.90;;;1.20;;
5995;SDS011;3026;53.612;7.278;2023-05-02T11:43:23;3.53;;;1.10;;
5995;SDS011;3026;53.612;7.278;2023-05-02T11:45:52;3.70;;;1.20;;
5995;SDS011;3026;53.612;7.278;2023-05-02T11:48:21;4.13;;;1.20;;
5995;SDS011;3026;53.612;7.278;2023-05-02T11:50:51;3.20;;;1.13;;
5995;SDS011;3026;53.612;7.278;2023-05-02T11:53:20;5.43;;;1.30;;
5995;SDS011;3026;53.612;7.278;2023-05-02T11:55:48;4.07;;;1.30;;
5995;SDS011;3026;53.612;7.278;2023-05-02T11:58:16;3.70;;;0.97;;
5995;SDS011;3026;53.612;7.278;2023-05-02T12:00:44;5.00;;;1.30;;
5995;SDS011;3026;53.612;7.278;2023-05-02T12:03:23;7.37;;;1.30;;
5995;SDS011;3026;53.612;7.278;2023-05-02T12:05:52;5.67;;;1.10;;
5995;SDS011;3026;53.612;7.278;2023-05-02T12:08:20;3.00;;;1.27;;
5995;SDS011;3026;53.612;7.278;2023-05-02T12:10:49;5.90;;;1.30;;
5995;SDS011;3026;53.612;7.278;2023-05-02T12:13:19;2.40;;;0.87;;
5995;SDS011;3026;53.612;7.278;2023-05-02T12:15:47;4.63;;;1.00;;
5995;SDS011;3026;53.612;7.278;2023-05-02T12:18:15;5.20;;;1.30;;
5995;SDS011;3026;53.612;7.278;2023-05-02T12:20:44;2.10;;;1.33;;
5995;SDS011;3026;53.612;7.278;2023-05-02T12:23:12;4.27;;;1.30;;
5995;SDS011;3026;53.612;7.278;2023-05-02T12:25:39;4.47;;;1.33;;
5995;SDS011;3026;53.612;7.278;2023-05-02T12:28:07;5.60;;;1.00;;
5995;SDS011;3026;53.612;7.278;2023-05-02T12:30:35;2.80;;;1.00;;
5995;SDS011;3026;53.612;7.278;2023-05-02T12:33:04;6.03;;;1.00;;
5995;SDS011;3026;53.612;7.278;2023-05-02T12:35:32;6.70;;;1.13;;
5995;SDS011;3026;53.612;7.278;2023-05-02T12:38:11;2.10;;;0.77;;
5995;SDS011;3026;53.612;7.278;2023-05-02T12:40:45;3.43;;;1.30;;
5995;SDS011;3026;53.612;7.278;2023-05-02T12:43:14;3.73;;;1.30;;
5995;SDS011;3026;53.612;7.278;2023-05-02T12:45:41;4.27;;;1.37;;
5995;SDS011;3026;53.612;7.278;2023-05-02T12:48:17;3.80;;;1.20;;
5995;SDS011;3026;53.612;7.278;2023-05-02T12:50:45;2.43;;;0.70;;
5995;SDS011;3026;53.612;7.278;2023-05-02T12:53:14;2.63;;;0.87;;
5995;SDS011;3026;53.612;7.278;2023-05-02T12:55:40;3.20;;;1.17;;
5995;SDS011;3026;53.612;7.278;2023-05-02T12:58:08;4.27;;;0.83;;
5995;SDS011;3026;53.612;7.278;2023-05-02T13:00:37;3.00;;;1.20;;
5995;SDS011;3026;53.612;7.278;2023-05-02T13:03:05;4.17;;;1.30;;
5995;SDS011;3026;53.612;7.278;2023-05-02T13:05:33;2.40;;;0.80;;
5995;SDS011;3026;53.612;7.278;2023-05-02T13:08:00;1.93;;;0.90;;
5995;SDS011;3026;53.612;7.278;2023-05-02T13:10:28;4.17;;;1.00;;
5995;SDS011;3026;53.612;7.278;2023-05-02T13:12:55;4.80;;;1.27;;
5995;SDS011;3026;53.612;7.278;2023-05-02T13:15:22;3.53;;;0.90;;
5995;SDS011;3026;53.612;7.278;2023-05-02T13:17:49;2.10;;;0.90;;
5995;SDS011;3026;53.612;7.278;2023-05-02T13:20:17;3.07;;;0.90;;
5995;SDS011;3026;53.612;7.278;2023-05-02T13:22:54;5.43;;;1.43;;
5995;SDS011;3026;53.612;7.278;2023-05-02T13:25:21;4.20;;;1.20;;
5995;SDS011;3026;53.612;7.278;2023-05-02T13:27:47;4.63;;;1.10;;
5995;SDS011;3026;53.612;7.278;2023-05-02T13:30:14;6.63;;;1.80;;
5995;SDS011;3026;53.612;7.278;2023-05-02T13:32:41;2.50;;;1.33;;
5995;SDS011;3026;53.612;7.278;2023-05-02T13:35:08;4.63;;;1.10;;
5995;SDS011;3026;53.612;7.278;2023-05-02T13:37:38;2.27;;;0.83;;
5995;SDS011;3026;53.612;7.278;2023-05-02T13:40:07;2.90;;;0.77;;
5995;SDS011;3026;53.612;7.278;2023-05-02T13:42:35;5.93;;;0.90;;
5995;SDS011;3026;53.612;7.278;2023-05-02T13:45:01;1.47;;;1.00;;
5995;SDS011;3026;53.612;7.278;2023-05-02T13:47:29;5.07;;;1.00;;
5995;SDS011;3026;53.612;7.278;2023-05-02T13:49:56;3.80;;;1.57;;
5995;SDS011;3026;53.612;7.278;2023-05-02T13:52:22;4.83;;;1.00;;
5995;SDS011;3026;53.612;7.278;2023-05-02T13:54:49;6.53;;;1.57;;
5995;SDS011;3026;53.612;7.278;2023-05-02T13:57:17;2.23;;;0.93;;
5995;SDS011;3026;53.612;7.278;2023-05-02T13:59:44;3.43;;;1.07;;
5995;SDS011;3026;53.612;7.278;2023-05-02T14:02:11;2.33;;;1.00;;
5995;SDS011;3026;53.612;7.278;2023-05-02T14:04:38;2.83;;;0.80;;
5995;SDS011;3026;53.612;7.278;2023-05-02T14:07:05;4.27;;;1.53;;
5995;SDS011;3026;53.612;7.278;2023-05-02T14:09:31;4.13;;;1.40;;
5995;SDS011;3026;53.612;7.278;2023-05-02T14:11:58;4.47;;;0.90;;
5995;SDS011;3026;53.612;7.278;2023-05-02T14:14:27;4.77;;;1.10;;
5995;SDS011;3026;53.612;7.278;2023-05-02T14:16:54;4.70;;;1.27;;
5995;SDS011;3026;53.612;7.278;2023-05-02T14:19:21;5.73;;;1.80;;
5995;SDS011;3026;53.612;7.278;2023-05-02T14:21:48;6.87;;;1.13;;
5995;SDS011;3026;53.612;7.278;2023-05-02T14:24:15;4.27;;;1.00;;
5995;SDS011;3026;53.612;7.278;2023-05-02T14:26:42;3.30;;;1.20;;
5995;SDS011;3026;53.612;7.278;2023-05-02T14:29:09;7.03;;;1.17;;
5995;SDS011;3026;53.612;7.278;2023-05-02T14:31:37;4.57;;;0.97;;
5995;SDS011;3026;53.612;7.278;2023-05-02T14:34:04;3.93;;;0.97;;
5995;SDS011;3026;53.612;7.278;2023-05-02T14:36:30;3.57;;;1.13;;
5995;SDS011;3026;53.612;7.278;2023-05-02T14:38:57;2.37;;;1.03;;
5995;SDS011;3026;53.612;7.278;2023-05-02T14:41:24;3.40;;;1.00;;
5995;SDS011;3026;53.612;7.278;2023-05-02T14:43:51;4.70;;;1.17;;
5995;SDS011;3026;53.612;7.278;2023-05-02T14:46:18;2.50;;;0.93;;
5995;SDS011;3026;53.612;7.278;2023-05-02T14:48:46;3.07;;;0.87;;
5995;SDS011;3026;53.612;7.278;2023-05-02T14:51:13;3.70;;;0.77;;
5995;SDS011;3026;53.612;7.278;2023-05-02T14:53:40;4.77;;;1.63;;
5995;SDS011;3026;53.612;7.278;2023-05-02T14:56:10;4.80;;;1.00;;
5995;SDS011;3026;53.612;7.278;2023-05-02T14:58:38;5.00;;;0.90;;
5995;SDS011;3026;53.612;7.278;2023-05-02T15:01:05;1.43;;;0.90;;
5995;SDS011;3026;53.612;7.278;2023-05-02T15:03:32;3.93;;;1.27;;
5995;SDS011;3026;53.612;7.278;2023-05-02T15:06:00;4.53;;;0.90;;
5995;SDS011;3026;53.612;7.278;2023-05-02T15:08:27;5.73;;;1.50;;
5995;SDS011;3026;53.612;7.278;2023-05-02T15:10:54;2.50;;;1.03;;
5995;SDS011;3026;53.612;7.278;2023-05-02T15:13:21;3.33;;;1.43;;
5995;SDS011;3026;53.612;7.278;2023-05-02T15:15:47;4.33;;;0.90;;
5995;SDS011;3026;53.612;7.278;2023-05-02T15:18:14;4.90;;;1.13;;
5995;SDS011;3026;53.612;7.278;2023-05-02T15:20:41;3.13;;;1.33;;
5995;SDS011;3026;53.612;7.278;2023-05-02T15:23:10;2.53;;;0.93;;
5995;SDS011;3026;53.612;7.278;2023-05-02T15:25:36;3.70;;;0.97;;
5995;SDS011;3026;53.612;7.278;2023-05-02T15:28:03;3.23;;;1.30;;